sensor_id;sensor_type;location;lat;lon;timestamp;P1;durP1;ratioP1;P2;durP2;ratioP2
11006;SDS011;8186;57.652;11.968;2024-02-04T00:00:56;33.17;;;6.33;;
11006;SDS011;8186;57.652;11.968;2024-02-04T00:03:23;36.73;;;6.40;;
11006;SDS011;8186;57.652;11.968;2024-02-04T00:05:49;27.77;;;7.00;;
11006;SDS011;8186;57.652;11.968;2024-02-04T00:08:16;33.23;;;6.80;;
11006;SDS011;8186;57.652;11.968;2024-02-04T00:10:43;26.97;;;5.77;;
11006;SDS011;8186;57.652;11.968;2024-02-04T00:13:10;33.53;;;6.57;;
11006;SDS011;8186;57.652;11.968;2024-02-04T00:15:36;32.67;;;6.23;;
11006;SDS011;8186;57.652;11.968;2024-02-04T00:18:05;32.13;;;5.43;;
11006;SDS011;8186;57.652;11.968;2024-02-04T00:20:32;30.87;;;6.17;;
11006;SDS011;8186;57.652;11.968;2024-02-04T00:22:59;23.77;;;5.40;;
11006;SDS011;8186;57.652;11.968;2024-02-04T00:25:26;27.43;;;5.37;;
11006;SDS011;8186;57.652;11.968;2024-02-04T00:27:54;23.57;;;6.07;;
11006;SDS011;8186;57.652;11.968;2024-02-04T00:30:21;20.43;;;4.80;;
11006;SDS011;8186;57.652;11.968;2024-02-04T00:32:48;22.57;;;5.13;;
11006;SDS011;8186;57.652;11.968;2024-02-04T00:35:16;24.50;;;4.67;;
11006;SDS011;8186;57.652;11.968;2024-02-04T00:37:42;23.53;;;4.83;;
11006;SDS011;8186;57.652;11.968;2024-02-04T00:40:10;23.47;;;4.50;;
11006;SDS011;8186;57.652;11.968;2024-02-04T00:42:37;24.93;;;4.63;;
11006;SDS011;8186;57.652;11.968;2024-02-04T00:45:04;19.23;;;3.93;;
11006;SDS011;8186;57.652;11.968;2024-02-04T00:47:31;15.43;;;3.67;;
11006;SDS011;8186;57.652;11.968;2024-02-04T00:49:58;19.00;;;4.40;;
11006;SDS011;8186;57.652;11.968;2024-02-04T00:52:26;12.73;;;3.33;;
11006;SDS011;8186;57.652;11.968;2024-02-04T00:54:53;12.40;;;2.90;;
11006;SDS011;8186;57.652;11.968;2024-02-04T00:57:19;17.60;;;4.33;;
11006;SDS011;8186;57.652;11.968;2024-02-04T00:59:46;17.33;;;3.53;;
11006;SDS011;8186;57.652;11.968;2024-02-04T01:02:13;15.53;;;3.10;;
11006;SDS011;8186;57.652;11.968;2024-02-04T01:04:39;19.07;;;3.40;;
11006;SDS011;8186;57.652;11.968;2024-02-04T01:07:06;14.37;;;3.03;;
11006;SDS011;8186;57.652;11.968;2024-02-04T01:09:34;11.27;;;3.07;;
11006;SDS011;8186;57.652;11.968;2024-02-04T01:12:01;16.20;;;3.63;;
11006;SDS011;8186;57.652;11.968;2024-02-04T01:14:28;14.60;;;3.37;;
11006;SDS011;8186;57.652;11.968;2024-02-04T01:16:55;15.70;;;3.43;;
11006;SDS011;8186;57.652;11.968;2024-02-04T01:19:21;13.67;;;3.50;;
11006;SDS011;8186;57.652;11.968;2024-02-04T01:21:48;17.83;;;3.50;;
11006;SDS011;8186;57.652;11.968;2024-02-04T01:24:15;17.27;;;3.53;;
11006;SDS011;8186;57.652;11.968;2024-02-04T01:26:43;11.57;;;2.87;;
11006;SDS011;8186;57.652;11.968;2024-02-04T01:29:10;20.33;;;3.87;;
11006;SDS011;8186;57.652;11.968;2024-02-04T01:31:37;15.07;;;3.00;;
11006;SDS011;8186;57.652;11.968;2024-02-04T01:34:03;14.60;;;3.47;;
11006;SDS011;8186;57.652;11.968;2024-02-04T01:36:30;13.20;;;3.13;;
11006;SDS011;8186;57.652;11.968;2024-02-04T01:38:57;11.30;;;2.80;;
11006;SDS011;8186;57.652;11.968;2024-02-04T01:41:24;15.60;;;3.60;;
11006;SDS011;8186;57.652;11.968;2024-02-04T01:43:54;16.40;;;2.80;;
11006;SDS011;8186;57.652;11.968;2024-02-04T01:46:21;13.97;;;2.90;;
11006;SDS011;8186;57.652;11.968;2024-02-04T01:48:48;15.23;;;3.00;;
11006;SDS011;8186;57.652;11.968;2024-02-04T01:51:16;16.13;;;3.23;;
11006;SDS011;8186;57.652;11.968;2024-02-04T01:53:44;16.73;;;3.73;;
11006;SDS011;8186;57.652;11.968;2024-02-04T01:56:12;20.10;;;3.30;;
11006;SDS011;8186;57.652;11.968;2024-02-04T01:58:39;14.20;;;3.13;;
11006;SDS011;8186;57.652;11.968;2024-02-04T02:01:07;13.60;;;3.67;;
11006;SDS011;8186;57.652;11.968;2024-02-04T02:03:35;20.13;;;3.57;;
11006;SDS011;8186;57.652;11.968;2024-02-04T02:06:02;21.17;;;4.20;;
11006;SDS011;8186;57.652;11.968;2024-02-04T02:08:29;20.07;;;3.27;;
11006;SDS011;8186;57.652;11.968;2024-02-04T02:10:57;14.40;;;4.43;;
11006;SDS011;8186;57.652;11.968;2024-02-04T02:13:31;22.93;;;4.00;;
11006;SDS011;8186;57.652;11.968;2024-02-04T02:16:01;17.77;;;3.20;;
11006;SDS011;8186;57.652;11.968;2024-02-04T02:18:33;15.73;;;2.83;;
11006;SDS011;8186;57.652;11.968;2024-02-04T02:21:07;15.00;;;3.73;;
11006;SDS011;8186;57.652;11.968;2024-02-04T02:23:46;9.47;;;2.47;;
11006;SDS011;8186;57.652;11.968;2024-02-04T02:26:16;17.73;;;4.47;;
11006;SDS011;8186;57.652;11.968;2024-02-04T02:28:44;23.40;;;4.23;;
11006;SDS011;8186;57.652;11.968;2024-02-04T02:31:10;12.70;;;3.17;;
11006;SDS011;8186;57.652;11.968;2024-02-04T02:33:37;17.53;;;3.43;;
11006;SDS011;8186;57.652;11.968;2024-02-04T02:36:06;13.57;;;3.37;;
11006;SDS011;8186;57.652;11.968;2024-02-04T02:38:37;17.90;;;3.87;;
11006;SDS011;8186;57.652;11.968;2024-02-04T02:41:09;17.80;;;3.70;;
11006;SDS011;8186;57.652;11.968;2024-02-04T02:43:37;19.43;;;2.80;;
11006;SDS011;8186;57.652;11.968;2024-02-04T02:46:06;17.90;;;4.10;;
11006;SDS011;8186;57.652;11.968;2024-02-04T02:48:33;19.07;;;3.73;;
11006;SDS011;8186;57.652;11.968;2024-02-04T02:51:00;15.97;;;3.80;;
11006;SDS011;8186;57.652;11.968;2024-02-04T02:53:27;16.70;;;3.20;;
11006;SDS011;8186;57.652;11.968;2024-02-04T02:55:54;12.27;;;2.57;;
11006;SDS011;8186;57.652;11.968;2024-02-04T02:58:20;22.40;;;3.60;;
11006;SDS011;8186;57.652;11.968;2024-02-04T03:00:49;20.13;;;4.20;;
11006;SDS011;8186;57.652;11.968;2024-02-04T03:03:15;23.03;;;3.97;;
11006;SDS011;8186;57.652;11.968;2024-02-04T03:05:42;32.73;;;4.30;;
11006;SDS011;8186;57.652;11.968;2024-02-04T03:08:09;18.60;;;4.00;;
11006;SDS011;8186;57.652;11.968;2024-02-04T03:10:35;19.03;;;3.90;;
11006;SDS011;8186;57.652;11.968;2024-02-04T03:13:02;13.03;;;3.50;;
11006;SDS011;8186;57.652;11.968;2024-02-04T03:15:30;19.90;;;3.90;;
11006;SDS011;8186;57.652;11.968;2024-02-04T03:17:58;20.83;;;3.07;;
11006;SDS011;8186;57.652;11.968;2024-02-04T03:20:25;19.67;;;3.57;;
11006;SDS011;8186;57.652;11.968;2024-02-04T03:22:52;18.10;;;3.50;;
11006;SDS011;8186;57.652;11.968;2024-02-04T03:25:19;18.50;;;4.07;;
11006;SDS011;8186;57.652;11.968;2024-02-04T03:27:45;13.90;;;3.17;;
11006;SDS011;8186;57.652;11.968;2024-02-04T03:30:12;16.83;;;3.23;;
11006;SDS011;8186;57.652;11.968;2024-02-04T03:32:39;22.50;;;5.30;;
11006;SDS011;8186;57.652;11.968;2024-02-04T03:35:07;22.37;;;3.67;;
11006;SDS011;8186;57.652;11.968;2024-02-04T03:37:34;20.67;;;4.03;;
11006;SDS011;8186;57.652;11.968;2024-02-04T03:40:01;16.83;;;3.40;;
11006;SDS011;8186;57.652;11.968;2024-02-04T03:42:28;17.17;;;5.70;;
11006;SDS011;8186;57.652;11.968;2024-02-04T03:44:55;20.27;;;3.73;;
11006;SDS011;8186;57.652;11.968;2024-02-04T03:47:22;17.07;;;3.50;;
11006;SDS011;8186;57.652;11.968;2024-02-04T03:49:48;13.50;;;3.57;;
11006;SDS011;8186;57.652;11.968;2024-02-04T03:52:16;18.63;;;3.43;;
11006;SDS011;8186;57.652;11.968;2024-02-04T03:54:43;18.33;;;3.87;;
11006;SDS011;8186;57.652;11.968;2024-02-04T03:57:10;16.10;;;2.90;;
11006;SDS011;8186;57.652;11.968;2024-02-04T03:59:37;24.63;;;3.70;;
11006;SDS011;8186;57.652;11.968;2024-02-04T04:02:04;16.03;;;3.83;;
11006;SDS011;8186;57.652;11.968;2024-02-04T04:04:30;17.77;;;3.83;;
11006;SDS011;8186;57.652;11.968;2024-02-04T04:06:57;17.03;;;3.07;;
11006;SDS011;8186;57.652;11.968;2024-02-04T04:09:25;15.40;;;3.50;;
11006;SDS011;8186;57.652;11.968;2024-02-04T04:11:52;18.43;;;4.00;;
11006;SDS011;8186;57.652;11.968;2024-02-04T04:14:19;17.47;;;3.40;;
11006;SDS011;8186;57.652;11.968;2024-02-04T04:16:45;14.13;;;3.10;;
11006;SDS011;8186;57.652;11.968;2024-02-04T04:19:12;19.53;;;3.20;;
11006;SDS011;8186;57.652;11.968;2024-02-04T04:21:39;19.33;;;3.33;;
11006;SDS011;8186;57.652;11.968;2024-02-04T04:24:06;17.13;;;3.87;;
11006;SDS011;8186;57.652;11.968;2024-02-04T04:26:34;20.83;;;3.53;;
11006;SDS011;8186;57.652;11.968;2024-02-04T04:29:01;17.80;;;3.57;;
11006;SDS011;8186;57.652;11.968;2024-02-04T04:31:28;18.03;;;4.00;;
11006;SDS011;8186;57.652;11.968;2024-02-04T04:33:55;18.87;;;3.13;;
11006;SDS011;8186;57.652;11.968;2024-02-04T04:36:22;17.37;;;3.50;;
11006;SDS011;8186;57.652;11.968;2024-02-04T04:38:48;20.03;;;3.87;;
11006;SDS011;8186;57.652;11.968;2024-02-04T04:41:15;19.37;;;3.87;;
11006;SDS011;8186;57.652;11.968;2024-02-04T04:43:43;21.27;;;3.57;;
11006;SDS011;8186;57.652;11.968;2024-02-04T04:46:10;13.73;;;3.20;;
11006;SDS011;8186;57.652;11.968;2024-02-04T04:48:37;16.80;;;3.53;;
11006;SDS011;8186;57.652;11.968;2024-02-04T04:51:04;15.87;;;3.33;;
11006;SDS011;8186;57.652;11.968;2024-02-04T04:53:30;16.77;;;3.30;;
11006;SDS011;8186;57.652;11.968;2024-02-04T04:55:57;20.63;;;3.67;;
11006;SDS011;8186;57.652;11.968;2024-02-04T04:58:24;19.57;;;3.97;;
11006;SDS011;8186;57.652;11.968;2024-02-04T05:00:52;20.73;;;4.03;;
11006;SDS011;8186;57.652;11.968;2024-02-04T05:03:19;17.07;;;3.53;;
11006;SDS011;8186;57.652;11.968;2024-02-04T05:05:45;21.60;;;4.87;;
11006;SDS011;8186;57.652;11.968;2024-02-04T05:08:12;21.23;;;3.53;;
11006;SDS011;8186;57.652;11.968;2024-02-04T05:10:40;15.93;;;3.27;;
11006;SDS011;8186;57.652;11.968;2024-02-04T05:13:07;16.67;;;3.93;;
11006;SDS011;8186;57.652;11.968;2024-02-04T05:15:34;16.23;;;3.77;;
11006;SDS011;8186;57.652;11.968;2024-02-04T05:18:02;11.97;;;2.87;;
11006;SDS011;8186;57.652;11.968;2024-02-04T05:20:29;15.30;;;3.50;;
11006;SDS011;8186;57.652;11.968;2024-02-04T05:22:56;16.60;;;3.40;;
11006;SDS011;8186;57.652;11.968;2024-02-04T05:25:23;20.73;;;4.17;;
11006;SDS011;8186;57.652;11.968;2024-02-04T05:27:50;12.47;;;3.30;;
11006;SDS011;8186;57.652;11.968;2024-02-04T05:30:17;11.87;;;3.10;;
11006;SDS011;8186;57.652;11.968;2024-02-04T05:32:44;15.03;;;3.10;;
11006;SDS011;8186;57.652;11.968;2024-02-04T05:35:12;18.47;;;3.93;;
11006;SDS011;8186;57.652;11.968;2024-02-04T05:37:39;23.40;;;4.10;;
11006;SDS011;8186;57.652;11.968;2024-02-04T05:40:06;18.60;;;4.33;;
11006;SDS011;8186;57.652;11.968;2024-02-04T05:42:33;17.17;;;3.40;;
11006;SDS011;8186;57.652;11.968;2024-02-04T05:45:01;18.43;;;3.53;;
11006;SDS011;8186;57.652;11.968;2024-02-04T05:47:28;18.17;;;4.30;;
11006;SDS011;8186;57.652;11.968;2024-02-04T05:49:55;16.67;;;3.80;;
11006;SDS011;8186;57.652;11.968;2024-02-04T05:52:23;25.00;;;4.27;;
11006;SDS011;8186;57.652;11.968;2024-02-04T05:54:50;14.10;;;3.63;;
11006;SDS011;8186;57.652;11.968;2024-02-04T05:57:16;17.87;;;3.70;;
11006;SDS011;8186;57.652;11.968;2024-02-04T05:59:45;12.73;;;3.27;;
11006;SDS011;8186;57.652;11.968;2024-02-04T06:02:13;22.97;;;4.27;;
11006;SDS011;8186;57.652;11.968;2024-02-04T06:04:40;20.27;;;4.13;;
11006;SDS011;8186;57.652;11.968;2024-02-04T06:07:06;17.40;;;3.37;;
11006;SDS011;8186;57.652;11.968;2024-02-04T06:09:35;18.90;;;5.07;;
11006;SDS011;8186;57.652;11.968;2024-02-04T06:12:02;16.73;;;4.47;;
11006;SDS011;8186;57.652;11.968;2024-02-04T06:14:32;23.77;;;4.30;;
11006;SDS011;8186;57.652;11.968;2024-02-04T06:16:59;16.50;;;3.30;;
11006;SDS011;8186;57.652;11.968;2024-02-04T06:19:26;17.93;;;3.90;;
11006;SDS011;8186;57.652;11.968;2024-02-04T06:21:52;16.37;;;3.97;;
11006;SDS011;8186;57.652;11.968;2024-02-04T06:24:19;13.77;;;3.57;;
11006;SDS011;8186;57.652;11.968;2024-02-04T06:26:47;23.07;;;4.53;;
11006;SDS011;8186;57.652;11.968;2024-02-04T06:29:14;19.40;;;3.97;;
11006;SDS011;8186;57.652;11.968;2024-02-04T06:31:43;21.20;;;4.13;;
11006;SDS011;8186;57.652;11.968;2024-02-04T06:34:10;21.23;;;4.50;;
11006;SDS011;8186;57.652;11.968;2024-02-04T06:36:37;19.60;;;3.93;;
11006;SDS011;8186;57.652;11.968;2024-02-04T06:39:04;24.43;;;4.80;;
11006;SDS011;8186;57.652;11.968;2024-02-04T06:41:33;19.17;;;4.83;;
11006;SDS011;8186;57.652;11.968;2024-02-04T06:44:02;27.60;;;4.97;;
11006;SDS011;8186;57.652;11.968;2024-02-04T06:46:29;23.87;;;4.67;;
11006;SDS011;8186;57.652;11.968;2024-02-04T06:48:56;19.87;;;4.47;;
11006;SDS011;8186;57.652;11.968;2024-02-04T06:51:23;21.23;;;4.07;;
11006;SDS011;8186;57.652;11.968;2024-02-04T06:53:50;25.77;;;5.43;;
11006;SDS011;8186;57.652;11.968;2024-02-04T06:56:17;31.93;;;5.47;;
11006;SDS011;8186;57.652;11.968;2024-02-04T06:58:43;27.80;;;5.57;;
11006;SDS011;8186;57.652;11.968;2024-02-04T07:01:12;23.47;;;4.50;;
11006;SDS011;8186;57.652;11.968;2024-02-04T07:03:39;24.67;;;5.13;;
11006;SDS011;8186;57.652;11.968;2024-02-04T07:06:06;23.67;;;3.97;;
11006;SDS011;8186;57.652;11.968;2024-02-04T07:08:33;17.10;;;4.20;;
11006;SDS011;8186;57.652;11.968;2024-02-04T07:10:59;25.93;;;5.80;;
11006;SDS011;8186;57.652;11.968;2024-02-04T07:13:26;26.23;;;5.33;;
11006;SDS011;8186;57.652;11.968;2024-02-04T07:15:53;25.93;;;5.50;;
11006;SDS011;8186;57.652;11.968;2024-02-04T07:18:21;22.80;;;4.87;;
11006;SDS011;8186;57.652;11.968;2024-02-04T07:20:48;26.30;;;4.00;;
11006;SDS011;8186;57.652;11.968;2024-02-04T07:23:15;26.17;;;6.10;;
11006;SDS011;8186;57.652;11.968;2024-02-04T07:25:42;18.73;;;4.37;;
11006;SDS011;8186;57.652;11.968;2024-02-04T07:28:08;19.40;;;4.17;;
11006;SDS011;8186;57.652;11.968;2024-02-04T07:30:35;18.57;;;4.37;;
11006;SDS011;8186;57.652;11.968;2024-02-04T07:33:02;18.53;;;4.00;;
11006;SDS011;8186;57.652;11.968;2024-02-04T07:35:30;18.03;;;3.93;;
11006;SDS011;8186;57.652;11.968;2024-02-04T07:37:57;13.27;;;2.97;;
11006;SDS011;8186;57.652;11.968;2024-02-04T07:40:24;16.10;;;3.23;;
11006;SDS011;8186;57.652;11.968;2024-02-04T07:42:52;23.50;;;3.80;;
11006;SDS011;8186;57.652;11.968;2024-02-04T07:45:19;13.87;;;3.33;;
11006;SDS011;8186;57.652;11.968;2024-02-04T07:47:46;20.30;;;3.70;;
11006;SDS011;8186;57.652;11.968;2024-02-04T07:50:12;15.37;;;3.50;;
11006;SDS011;8186;57.652;11.968;2024-02-04T07:52:40;14.70;;;3.23;;
11006;SDS011;8186;57.652;11.968;2024-02-04T07:55:07;22.40;;;3.90;;
11006;SDS011;8186;57.652;11.968;2024-02-04T07:57:34;17.00;;;3.43;;
11006;SDS011;8186;57.652;11.968;2024-02-04T08:00:01;13.83;;;3.30;;
11006;SDS011;8186;57.652;11.968;2024-02-04T08:02:30;20.83;;;3.80;;
11006;SDS011;8186;57.652;11.968;2024-02-04T08:04:57;19.83;;;3.70;;
11006;SDS011;8186;57.652;11.968;2024-02-04T08:07:23;20.37;;;3.90;;
11006;SDS011;8186;57.652;11.968;2024-02-04T08:09:51;20.37;;;4.93;;
11006;SDS011;8186;57.652;11.968;2024-02-04T08:12:18;22.07;;;4.70;;
11006;SDS011;8186;57.652;11.968;2024-02-04T08:14:45;21.63;;;3.70;;
11006;SDS011;8186;57.652;11.968;2024-02-04T08:17:12;20.73;;;3.97;;
11006;SDS011;8186;57.652;11.968;2024-02-04T08:19:38;18.90;;;3.90;;
11006;SDS011;8186;57.652;11.968;2024-02-04T08:22:05;23.97;;;4.30;;
11006;SDS011;8186;57.652;11.968;2024-02-04T08:24:32;16.73;;;4.03;;
11006;SDS011;8186;57.652;11.968;2024-02-04T08:27:00;16.33;;;3.77;;
11006;SDS011;8186;57.652;11.968;2024-02-04T08:29:27;22.97;;;4.27;;
11006;SDS011;8186;57.652;11.968;2024-02-04T08:31:54;18.90;;;4.10;;
11006;SDS011;8186;57.652;11.968;2024-02-04T08:34:20;19.17;;;4.10;;
11006;SDS011;8186;57.652;11.968;2024-02-04T08:36:49;21.93;;;4.47;;
11006;SDS011;8186;57.652;11.968;2024-02-04T08:39:16;29.27;;;4.03;;
11006;SDS011;8186;57.652;11.968;2024-02-04T08:41:42;15.00;;;3.43;;
11006;SDS011;8186;57.652;11.968;2024-02-04T08:44:11;15.90;;;3.87;;
11006;SDS011;8186;57.652;11.968;2024-02-04T08:46:37;22.13;;;4.30;;
11006;SDS011;8186;57.652;11.968;2024-02-04T08:49:04;18.07;;;3.93;;
11006;SDS011;8186;57.652;11.968;2024-02-04T08:51:31;16.87;;;3.77;;
11006;SDS011;8186;57.652;11.968;2024-02-04T08:53:57;24.67;;;4.87;;
11006;SDS011;8186;57.652;11.968;2024-02-04T08:56:24;16.37;;;4.40;;
11006;SDS011;8186;57.652;11.968;2024-02-04T08:58:51;26.50;;;4.60;;
11006;SDS011;8186;57.652;11.968;2024-02-04T09:01:19;22.53;;;4.97;;
11006;SDS011;8186;57.652;11.968;2024-02-04T09:03:46;22.03;;;4.13;;
11006;SDS011;8186;57.652;11.968;2024-02-04T09:06:13;24.27;;;4.90;;
11006;SDS011;8186;57.652;11.968;2024-02-04T09:08:41;21.47;;;5.13;;
11006;SDS011;8186;57.652;11.968;2024-02-04T09:11:08;20.07;;;3.97;;
11006;SDS011;8186;57.652;11.968;2024-02-04T09:13:34;22.57;;;4.37;;
11006;SDS011;8186;57.652;11.968;2024-02-04T09:16:01;22.37;;;5.30;;
11006;SDS011;8186;57.652;11.968;2024-02-04T09:18:31;21.80;;;4.80;;
11006;SDS011;8186;57.652;11.968;2024-02-04T09:20:57;28.27;;;5.40;;
11006;SDS011;8186;57.652;11.968;2024-02-04T09:23:24;26.40;;;5.20;;
11006;SDS011;8186;57.652;11.968;2024-02-04T09:25:51;26.57;;;5.43;;
11006;SDS011;8186;57.652;11.968;2024-02-04T09:28:17;19.67;;;4.30;;
11006;SDS011;8186;57.652;11.968;2024-02-04T09:30:44;26.97;;;5.30;;
11006;SDS011;8186;57.652;11.968;2024-02-04T09:33:11;21.70;;;5.30;;
11006;SDS011;8186;57.652;11.968;2024-02-04T09:35:39;25.17;;;4.47;;
11006;SDS011;8186;57.652;11.968;2024-02-04T09:38:06;23.27;;;5.07;;
11006;SDS011;8186;57.652;11.968;2024-02-04T09:40:33;19.77;;;4.57;;
11006;SDS011;8186;57.652;11.968;2024-02-04T09:43:00;23.10;;;5.13;;
11006;SDS011;8186;57.652;11.968;2024-02-04T09:45:27;22.63;;;6.03;;
11006;SDS011;8186;57.652;11.968;2024-02-04T09:47:56;19.00;;;4.93;;
11006;SDS011;8186;57.652;11.968;2024-02-04T09:50:23;28.13;;;5.07;;
11006;SDS011;8186;57.652;11.968;2024-02-04T09:52:52;25.77;;;6.60;;
11006;SDS011;8186;57.652;11.968;2024-02-04T09:55:24;27.93;;;5.43;;
11006;SDS011;8186;57.652;11.968;2024-02-04T09:57:51;26.33;;;5.83;;
11006;SDS011;8186;57.652;11.968;2024-02-04T10:00:19;20.33;;;4.53;;
11006;SDS011;8186;57.652;11.968;2024-02-04T10:02:46;20.43;;;4.90;;
11006;SDS011;8186;57.652;11.968;2024-02-04T10:05:14;24.30;;;5.13;;
11006;SDS011;8186;57.652;11.968;2024-02-04T10:07:41;21.37;;;4.73;;
11006;SDS011;8186;57.652;11.968;2024-02-04T10:10:09;20.83;;;3.80;;
11006;SDS011;8186;57.652;11.968;2024-02-04T10:12:36;27.27;;;4.83;;
11006;SDS011;8186;57.652;11.968;2024-02-04T10:15:04;21.97;;;4.53;;
11006;SDS011;8186;57.652;11.968;2024-02-04T10:17:31;20.77;;;4.47;;
11006;SDS011;8186;57.652;11.968;2024-02-04T10:20:00;21.50;;;4.60;;
11006;SDS011;8186;57.652;11.968;2024-02-04T10:22:27;26.47;;;5.23;;
11006;SDS011;8186;57.652;11.968;2024-02-04T10:25:04;23.83;;;5.03;;
11006;SDS011;8186;57.652;11.968;2024-02-04T10:27:33;20.00;;;4.87;;
11006;SDS011;8186;57.652;11.968;2024-02-04T10:30:00;24.27;;;5.13;;
11006;SDS011;8186;57.652;11.968;2024-02-04T10:32:26;26.33;;;5.40;;
11006;SDS011;8186;57.652;11.968;2024-02-04T10:34:54;21.47;;;4.40;;
11006;SDS011;8186;57.652;11.968;2024-02-04T10:37:21;23.90;;;5.13;;
11006;SDS011;8186;57.652;11.968;2024-02-04T10:39:47;29.87;;;6.60;;
11006;SDS011;8186;57.652;11.968;2024-02-04T10:42:14;25.77;;;5.77;;
11006;SDS011;8186;57.652;11.968;2024-02-04T10:44:43;24.30;;;5.20;;
11006;SDS011;8186;57.652;11.968;2024-02-04T10:47:12;26.17;;;5.17;;
11006;SDS011;8186;57.652;11.968;2024-02-04T10:49:41;31.07;;;5.37;;
11006;SDS011;8186;57.652;11.968;2024-02-04T10:52:13;27.27;;;5.30;;
11006;SDS011;8186;57.652;11.968;2024-02-04T10:54:40;30.03;;;5.03;;
11006;SDS011;8186;57.652;11.968;2024-02-04T10:57:10;30.30;;;6.00;;
11006;SDS011;8186;57.652;11.968;2024-02-04T10:59:39;22.90;;;4.90;;
11006;SDS011;8186;57.652;11.968;2024-02-04T11:02:07;24.73;;;4.93;;
11006;SDS011;8186;57.652;11.968;2024-02-04T11:04:34;30.00;;;6.27;;
11006;SDS011;8186;57.652;11.968;2024-02-04T11:07:02;27.33;;;5.47;;
11006;SDS011;8186;57.652;11.968;2024-02-04T11:09:30;28.73;;;6.23;;
11006;SDS011;8186;57.652;11.968;2024-02-04T11:11:58;28.40;;;5.90;;
11006;SDS011;8186;57.652;11.968;2024-02-04T11:14:25;32.97;;;5.63;;
11006;SDS011;8186;57.652;11.968;2024-02-04T11:17:04;24.77;;;5.40;;
11006;SDS011;8186;57.652;11.968;2024-02-04T11:19:47;24.33;;;5.57;;
11006;SDS011;8186;57.652;11.968;2024-02-04T11:22:22;31.63;;;5.57;;
11006;SDS011;8186;57.652;11.968;2024-02-04T11:25:03;23.37;;;6.37;;
11006;SDS011;8186;57.652;11.968;2024-02-04T11:27:39;23.63;;;4.70;;
11006;SDS011;8186;57.652;11.968;2024-02-04T11:30:07;22.80;;;4.90;;
11006;SDS011;8186;57.652;11.968;2024-02-04T11:32:36;26.80;;;6.27;;
11006;SDS011;8186;57.652;11.968;2024-02-04T11:35:03;23.27;;;5.63;;
11006;SDS011;8186;57.652;11.968;2024-02-04T11:37:32;26.00;;;5.70;;
11006;SDS011;8186;57.652;11.968;2024-02-04T11:39:59;25.57;;;4.87;;
11006;SDS011;8186;57.652;11.968;2024-02-04T11:42:31;19.20;;;4.43;;
11006;SDS011;8186;57.652;11.968;2024-02-04T11:45:06;19.10;;;4.07;;
11006;SDS011;8186;57.652;11.968;2024-02-04T11:47:33;27.07;;;4.80;;
11006;SDS011;8186;57.652;11.968;2024-02-04T11:50:02;17.80;;;3.50;;
11006;SDS011;8186;57.652;11.968;2024-02-04T11:52:29;26.57;;;4.77;;
11006;SDS011;8186;57.652;11.968;2024-02-04T11:54:56;21.47;;;4.17;;
11006;SDS011;8186;57.652;11.968;2024-02-04T11:57:23;27.53;;;4.90;;
11006;SDS011;8186;57.652;11.968;2024-02-04T11:59:50;28.57;;;5.23;;
11006;SDS011;8186;57.652;11.968;2024-02-04T12:02:17;18.47;;;4.53;;
11006;SDS011;8186;57.652;11.968;2024-02-04T12:04:44;21.13;;;4.87;;
11006;SDS011;8186;57.652;11.968;2024-02-04T12:07:12;23.77;;;4.80;;
11006;SDS011;8186;57.652;11.968;2024-02-04T12:09:40;19.67;;;4.53;;
11006;SDS011;8186;57.652;11.968;2024-02-04T12:12:07;24.80;;;5.03;;
11006;SDS011;8186;57.652;11.968;2024-02-04T12:14:35;21.87;;;5.00;;
11006;SDS011;8186;57.652;11.968;2024-02-04T12:17:06;21.47;;;4.73;;
11006;SDS011;8186;57.652;11.968;2024-02-04T12:19:34;19.97;;;4.53;;
11006;SDS011;8186;57.652;11.968;2024-02-04T12:22:01;23.73;;;5.47;;
11006;SDS011;8186;57.652;11.968;2024-02-04T12:24:34;27.93;;;5.17;;
11006;SDS011;8186;57.652;11.968;2024-02-04T12:27:02;20.37;;;5.00;;
11006;SDS011;8186;57.652;11.968;2024-02-04T12:29:29;20.17;;;4.10;;
11006;SDS011;8186;57.652;11.968;2024-02-04T12:31:59;28.80;;;5.17;;
11006;SDS011;8186;57.652;11.968;2024-02-04T12:34:26;24.93;;;4.60;;
11006;SDS011;8186;57.652;11.968;2024-02-04T12:36:57;17.13;;;4.13;;
11006;SDS011;8186;57.652;11.968;2024-02-04T12:39:25;15.27;;;3.80;;
11006;SDS011;8186;57.652;11.968;2024-02-04T12:41:53;22.13;;;3.87;;
11006;SDS011;8186;57.652;11.968;2024-02-04T12:44:20;16.63;;;3.40;;
11006;SDS011;8186;57.652;11.968;2024-02-04T12:46:49;16.50;;;3.20;;
11006;SDS011;8186;57.652;11.968;2024-02-04T12:49:17;18.17;;;5.07;;
11006;SDS011;8186;57.652;11.968;2024-02-04T12:51:45;16.40;;;3.83;;
11006;SDS011;8186;57.652;11.968;2024-02-04T12:54:12;13.03;;;3.40;;
11006;SDS011;8186;57.652;11.968;2024-02-04T12:56:40;15.80;;;3.30;;
11006;SDS011;8186;57.652;11.968;2024-02-04T12:59:09;15.20;;;3.33;;
11006;SDS011;8186;57.652;11.968;2024-02-04T13:01:36;22.30;;;3.60;;
11006;SDS011;8186;57.652;11.968;2024-02-04T13:04:03;24.33;;;3.93;;
11006;SDS011;8186;57.652;11.968;2024-02-04T13:06:30;19.30;;;4.53;;
11006;SDS011;8186;57.652;11.968;2024-02-04T13:08:57;13.33;;;3.50;;
11006;SDS011;8186;57.652;11.968;2024-02-04T13:11:24;15.87;;;4.17;;
11006;SDS011;8186;57.652;11.968;2024-02-04T13:13:51;17.90;;;3.87;;
11006;SDS011;8186;57.652;11.968;2024-02-04T13:16:19;23.53;;;4.43;;
11006;SDS011;8186;57.652;11.968;2024-02-04T13:18:52;15.07;;;3.33;;
11006;SDS011;8186;57.652;11.968;2024-02-04T13:21:19;20.27;;;3.90;;
11006;SDS011;8186;57.652;11.968;2024-02-04T13:23:47;20.97;;;3.90;;
11006;SDS011;8186;57.652;11.968;2024-02-04T13:26:14;15.17;;;4.07;;
11006;SDS011;8186;57.652;11.968;2024-02-04T13:28:42;21.57;;;4.40;;
11006;SDS011;8186;57.652;11.968;2024-02-04T13:31:08;22.27;;;4.30;;
11006;SDS011;8186;57.652;11.968;2024-02-04T13:33:37;20.70;;;4.13;;
11006;SDS011;8186;57.652;11.968;2024-02-04T13:36:05;19.33;;;4.60;;
11006;SDS011;8186;57.652;11.968;2024-02-04T13:38:32;26.10;;;5.70;;
11006;SDS011;8186;57.652;11.968;2024-02-04T13:40:59;24.20;;;4.30;;
11006;SDS011;8186;57.652;11.968;2024-02-04T13:43:25;24.33;;;5.07;;
11006;SDS011;8186;57.652;11.968;2024-02-04T13:45:53;19.03;;;4.47;;
11006;SDS011;8186;57.652;11.968;2024-02-04T13:48:19;23.13;;;5.33;;
11006;SDS011;8186;57.652;11.968;2024-02-04T13:50:48;29.60;;;5.90;;
11006;SDS011;8186;57.652;11.968;2024-02-04T13:53:15;23.50;;;5.67;;
11006;SDS011;8186;57.652;11.968;2024-02-04T13:55:42;22.73;;;4.47;;
11006;SDS011;8186;57.652;11.968;2024-02-04T13:58:10;26.17;;;6.63;;
11006;SDS011;8186;57.652;11.968;2024-02-04T14:00:37;22.20;;;4.57;;
11006;SDS011;8186;57.652;11.968;2024-02-04T14:03:04;24.17;;;5.50;;
11006;SDS011;8186;57.652;11.968;2024-02-04T14:05:31;22.53;;;5.03;;
11006;SDS011;8186;57.652;11.968;2024-02-04T14:08:00;34.97;;;5.60;;
11006;SDS011;8186;57.652;11.968;2024-02-04T14:10:28;32.10;;;5.67;;
11006;SDS011;8186;57.652;11.968;2024-02-04T14:12:55;22.10;;;4.70;;
11006;SDS011;8186;57.652;11.968;2024-02-04T14:15:22;22.57;;;4.63;;
11006;SDS011;8186;57.652;11.968;2024-02-04T14:17:49;23.80;;;4.83;;
11006;SDS011;8186;57.652;11.968;2024-02-04T14:20:15;26.57;;;5.33;;
11006;SDS011;8186;57.652;11.968;2024-02-04T14:22:43;27.37;;;5.10;;
11006;SDS011;8186;57.652;11.968;2024-02-04T14:25:11;20.40;;;4.13;;
11006;SDS011;8186;57.652;11.968;2024-02-04T14:27:38;27.90;;;5.20;;
11006;SDS011;8186;57.652;11.968;2024-02-04T14:30:06;25.93;;;5.60;;
11006;SDS011;8186;57.652;11.968;2024-02-04T14:32:33;18.87;;;4.50;;
11006;SDS011;8186;57.652;11.968;2024-02-04T14:35:00;22.37;;;4.73;;